Map

Track Data

SID SEASON NUMBER BASIN SUBBASIN NAME ISO_TIME NATURE LAT LON WMO_WIND WMO_PRES WMO_AGENCY TRACK_TYPE DIST2LAND LANDFALL IFLAG USA_AGENCY USA_ATCF_ID USA_LAT USA_LON USA_RECORD USA_STATUS USA_WIND USA_PRES USA_SSHS USA_R34_NE USA_R34_SE USA_R34_SW USA_R34_NW USA_R50_NE USA_R50_SE USA_R50_SW USA_R50_NW USA_R64_NE USA_R64_SE USA_R64_SW USA_R64_NW USA_POCI USA_ROCI USA_RMW USA_EYE TOKYO_LAT TOKYO_LON TOKYO_GRADE TOKYO_WIND TOKYO_PRES TOKYO_R50_DIR TOKYO_R50_LONG TOKYO_R50_SHORT TOKYO_R30_DIR TOKYO_R30_LONG TOKYO_R30_SHORT TOKYO_LAND CMA_LAT CMA_LON CMA_CAT CMA_WIND CMA_PRES HKO_LAT HKO_LON HKO_CAT HKO_WIND HKO_PRES NEWDELHI_LAT NEWDELHI_LON NEWDELHI_GRADE NEWDELHI_WIND NEWDELHI_PRES NEWDELHI_CI NEWDELHI_DP NEWDELHI_POCI REUNION_LAT REUNION_LON REUNION_TYPE REUNION_WIND REUNION_PRES REUNION_TNUM REUNION_CI REUNION_RMW REUNION_R34_NE REUNION_R34_SE REUNION_R34_SW REUNION_R34_NW REUNION_R50_NE REUNION_R50_SE REUNION_R50_SW REUNION_R50_NW REUNION_R64_NE REUNION_R64_SE REUNION_R64_SW REUNION_R64_NW BOM_LAT BOM_LON BOM_TYPE BOM_WIND BOM_PRES BOM_TNUM BOM_CI BOM_RMW BOM_R34_NE BOM_R34_SE BOM_R34_SW BOM_R34_NW BOM_R50_NE BOM_R50_SE BOM_R50_SW BOM_R50_NW BOM_R64_NE BOM_R64_SE BOM_R64_SW BOM_R64_NW BOM_ROCI BOM_POCI BOM_EYE BOM_POS_METHOD BOM_PRES_METHOD NADI_LAT NADI_LON NADI_CAT NADI_WIND NADI_PRES WELLINGTON_LAT WELLINGTON_LON WELLINGTON_WIND WELLINGTON_PRES DS824_LAT DS824_LON DS824_STAGE DS824_WIND DS824_PRES TD9636_LAT TD9636_LON TD9636_STAGE TD9636_WIND TD9636_PRES TD9635_LAT TD9635_LON TD9635_WIND TD9635_PRES TD9635_ROCI NEUMANN_LAT NEUMANN_LON NEUMANN_CLASS NEUMANN_WIND NEUMANN_PRES MLC_LAT MLC_LON MLC_CLASS MLC_WIND MLC_PRES USA_GUST BOM_GUST BOM_GUST_PER REUNION_GUST REUNION_GUST_PER USA_SEAHGT USA_SEARAD_NE USA_SEARAD_SE USA_SEARAD_SW USA_SEARAD_NW STORM_SPEED STORM_DIR
1854305S10073 1855 17 SI MM NOT_NAMED 1854-10-31 18:00:00 NR -10.4000 73.1000 main 1975 1937 __________O___ -1 -10.4000 73.1000 7 7 215
1854305S10073 1855 17 SI MM NOT_NAMED 1854-10-31 21:00:00 NR -10.6954 72.8924 main 1937 1900 __________P___ -1 -10.6954 72.8924 7 7 215
1854305S10073 1855 17 SI MM NOT_NAMED 1854-11-01 00:00:00 NR -11.0025 72.6777 main 1900 1864 __________P___ -1 -11.0025 72.6777 7 8 214
1854305S10073 1855 17 SI MM NOT_NAMED 1854-11-01 03:00:00 NR -11.3334 72.4492 main 1854 1812 __________P___ -1 -11.3334 72.4492 7 8 214
1854305S10073 1855 17 SI MM NOT_NAMED 1854-11-01 06:00:00 NR -11.7000 72.2000 main 1812 1760 __________O___ -1 -11.7000 72.2000 7 9 213
1854305S10073 1855 17 SI MM NOT_NAMED 1854-11-01 09:00:00 NR -12.1116 71.9254 main 1760 1708 __________P___ -1 -12.1116 71.9254 7 10 213
1854305S10073 1855 17 SI MM NOT_NAMED 1854-11-01 12:00:00 NR -12.5676 71.6295 main 1703 1652 __________P___ -1 -12.5676 71.6295 7 11 212
1854305S10073 1855 17 SI MM NOT_NAMED 1854-11-01 15:00:00 NR -13.0647 71.3189 main 1646 1590 __________P___ -1 -13.0647 71.3189 7 12 211
1854305S10073 1855 17 SI MM NOT_NAMED 1854-11-01 18:00:00 NR -13.6000 71.0000 main 1590 1529 __________O___ -1 -13.6000 71.0000 7 13 209
1854305S10073 1855 17 SI MM NOT_NAMED 1854-11-01 21:00:00 NR -14.2047 70.6705 main 1529 1470 __________P___ -1 -14.2047 70.6705 7 14 207
1854305S10073 1855 17 SI MM NOT_NAMED 1854-11-02 00:00:00 NR -14.8375 70.3357 main 1460 1402 __________P___ -1 -14.8375 70.3357 7 14 207
1854305S10073 1855 17 SI MM NOT_NAMED 1854-11-02 03:00:00 NR -15.4516 70.0080 main 1397 1345 __________P___ -1 -15.4516 70.0080 7 13 208
1854305S10073 1855 17 SI MM NOT_NAMED 1854-11-02 06:00:00 NR -16.0000 69.7000 main 1345 1299 __________O___ -1 -16.0000 69.7000 7 11 211
1854305S10073 1855 17 SI MM NOT_NAMED 1854-11-02 09:00:00 NR -16.4176 69.4154 main 1299 1267 __________P___ -1 -16.4176 69.4154 7 9 214
1854305S10073 1855 17 SI MM NOT_NAMED 1854-11-02 12:00:00 NR -16.7672 69.1540 main 1263 1222 __________P___ -1 -16.7672 69.1540 7 8 216
1854305S10073 1855 17 SI MM NOT_NAMED 1854-11-02 15:00:00 NR -17.0833 68.9156 main 1222 1191 __________P___ -1 -17.0833 68.9156 7 8 214
1854305S10073 1855 17 SI MM NOT_NAMED 1854-11-02 18:00:00 NR -17.4000 68.7000 main 1191 1158 __________O___ -1 -17.4000 68.7000 7 8 209
1854305S10073 1855 17 SI MM NOT_NAMED 1854-11-02 21:00:00 NR -17.7880 68.4992 main 1158 1126 __________P___ -1 -17.7880 68.4992 7 9 205
1854305S10073 1855 17 SI MM NOT_NAMED 1854-11-03 00:00:00 NR -18.1798 68.3198 main 1126 1108 __________P___ -1 -18.1798 68.3198 7 8 203
1854305S10073 1855 17 SI MM NOT_NAMED 1854-11-03 03:00:00 NR -18.5568 68.1555 main 1106 1079 __________P___ -1 -18.5568 68.1555 7 8 203
1854305S10073 1855 17 SI MM NOT_NAMED 1854-11-03 06:00:00 NR -18.9000 68.0000 main 1079 1063 __________O___ -1 -18.9000 68.0000 7 7 205
1854305S10073 1855 17 SI MM NOT_NAMED 1854-11-03 09:00:00 NR -19.1858 67.8425 main 1053 1040 __________P___ -1 -19.1858 67.8425 7 6 208
1854305S10073 1855 17 SI MM NOT_NAMED 1854-11-03 12:00:00 NR -19.4374 67.6920 main 1040 1025 __________P___ -1 -19.4374 67.6920 7 6 210
1854305S10073 1855 17 SI MM NOT_NAMED 1854-11-03 15:00:00 NR -19.6702 67.5456 main 1015 1003 __________P___ -1 -19.6702 67.5456 7 5 211
1854305S10073 1855 17 SI MM NOT_NAMED 1854-11-03 18:00:00 NR -19.9000 67.4000 main 1003 991 __________O___ -1 -19.9000 67.4000 7 6 210
1854305S10073 1855 17 SI MM NOT_NAMED 1854-11-03 21:00:00 NR -20.1581 67.2419 main 980 969 __________P___ -1 -20.1581 67.2419 7 6 210
1854305S10073 1855 17 SI MM NOT_NAMED 1854-11-04 00:00:00 NR -20.4150 67.0850 main 969 948 __________P___ -1 -20.4150 67.0850 7 6 210
1854305S10073 1855 17 SI MM NOT_NAMED 1854-11-04 03:00:00 NR -20.6644 66.9357 main 948 938 __________P___ -1 -20.6644 66.9357 7 6 209
1854305S10073 1855 17 SI MM NOT_NAMED 1854-11-04 06:00:00 NR -20.9000 66.8000 main 938 929 __________O___ -1 -20.9000 66.8000 7 5 209
1854305S10073 1855 17 SI MM NOT_NAMED 1854-11-04 09:00:00 NR -21.1062 66.6733 main 929 920 __________P___ -1 -21.1062 66.6733 7 5 209
1854305S10073 1855 17 SI MM NOT_NAMED 1854-11-04 12:00:00 NR -21.3000 66.5624 main 921 910 __________P___ -1 -21.3000 66.5624 7 4 206
1854305S10073 1855 17 SI MM NOT_NAMED 1854-11-04 15:00:00 NR -21.4937 66.4702 main 913 903 __________P___ -1 -21.4937 66.4702 7 4 201
1854305S10073 1855 17 SI MM NOT_NAMED 1854-11-04 18:00:00 NR -21.7000 66.4000 main 906 906 __________O___ -1 -21.7000 66.4000 7 5 195
1854305S10073 1855 17 SI MM NOT_NAMED 1854-11-04 21:00:00 NR -21.9281 66.3531 main 909 901 __________P___ -1 -21.9281 66.3531 7 5 188
1854305S10073 1855 17 SI MM NOT_NAMED 1854-11-05 00:00:00 NR -22.1750 66.3250 main 905 905 __________P___ -1 -22.1750 66.3250 7 5 185
1854305S10073 1855 17 SI MM NOT_NAMED 1854-11-05 03:00:00 NR -22.4344 66.3094 main 910 910 __________P___ -1 -22.4344 66.3094 7 5 0
1854305S10073 1855 17 SI MM NOT_NAMED 1854-11-05 06:00:00 NR -22.7000 66.3000 main 919 __________O___ -1 -22.7000 66.3000 7 5 0

About IBTrACS Database

This database is a web-friendly format of International Best Track Archive for Climate Stewardship (IBTrACS), a global best track data archive curated by NOAA dating back to 1842.

Updated: 2021-10-08